Heat Index SAI AWOS Graphical Display Untitled Document
Sidney Municipal Airport , NY ( N23 )
000
07:05
17/08/22
00
N/A
N/A
30.06
N/A
1027
62(F), 17(C)
62(F), 17(C)
62 F
100%
OVC001
1/4
Fog
N/A
N/A
07:05 zulu Wind Calm, Altimeter 30.06
METAR KN23 220705Z AUTO 00000KT 1/4SM FG OVC001 17/17 A3006 A02
METAR:
FAA Disclaimer--Advisory Use ONLY, not for flight info-- 6/29/2009: Sidney Airport, operations 607-561-2346, Pilots with cellphones (smartphones) can now view awos at http://www.saiawos3.com/N23
INFO:
Wind Direction:
Wind Speed:
Wind Gust:
Wind Variable:
Altimeter:
Dens Alt:
Elev:
Temp:
Dwpt:
Wind Chill
Rel Humidity:
Ceiling:
Visibility:
Prsnt Wea:
PCPN:
Remarks:
How to read the WebPage